Time;durP1;ratioP1;P1;durP2;ratioP2;P2;SDS_P1;SDS_P2;PMS_P1;PMS_P2;Temp;Humidity;BMP_temperature;BMP_pressure;BME280_temperature;BME280_humidity;BME280_pressure;Samples;Min_cycle;Max_cycle;Signal;HPM_P1;HPM_P2
2022/11/18 00:00:54;;;;;;;30.73;22.67;;;7.20;99.90;;;;;;7371429;19;20024;-49
2022/11/18 00:03:21;;;;;;;37.08;24.80;;;7.20;99.90;;;;;;7372723;19;20516;-52
2022/11/18 00:05:57;;;;;;;40.33;27.08;;;7.30;99.90;;;;;;7371104;19;20021;-50
2022/11/18 00:08:25;;;;;;;38.53;25.40;;;7.20;99.90;;;;;;7369823;19;20576;-52
2022/11/18 00:10:52;;;;;;;39.67;25.70;;;7.30;99.90;;;;;;7370262;19;20050;-48
2022/11/18 00:16:07;;;;;;;42.92;27.10;;;7.30;99.90;;;;;;7371853;19;20018;-49
2022/11/18 00:18:35;;;;;;;43.30;26.52;;;7.30;99.90;;;;;;7372161;19;20322;-50
2022/11/18 00:21:10;;;;;;;46.45;27.13;;;7.20;99.90;;;;;;7368148;19;20014;-53
2022/11/18 00:23:38;;;;;;;36.13;24.58;;;7.30;99.90;;;;;;7368449;19;20026;-53
2022/11/18 00:26:13;;;;;;;43.90;27.15;;;7.30;99.90;;;;;;7367250;19;20324;-51
2022/11/18 00:28:40;;;;;;;32.40;23.00;;;7.30;99.90;;;;;;7371971;19;20609;-55
2022/11/18 00:31:10;;;;;;;43.42;25.00;;;7.30;99.90;;;;;;7369167;19;20015;-55
2022/11/18 00:33:36;;;;;;;46.58;26.45;;;7.30;99.90;;;;;;7370543;19;20829;-55
2022/11/18 00:36:05;;;;;;;48.05;27.38;;;7.30;99.90;;;;;;7368186;19;20777;-55
2022/11/18 00:38:31;;;;;;;45.78;27.30;;;7.30;99.90;;;;;;7365997;19;20021;-52
2022/11/18 00:41:03;;;;;;;47.30;26.92;;;7.30;99.90;;;;;;7367278;19;20110;-52
2022/11/18 00:43:30;;;;;;;51.45;28.02;;;7.30;99.90;;;;;;7372657;19;20090;-49
2022/11/18 00:45:56;;;;;;;53.05;31.20;;;7.40;99.90;;;;;;7366790;19;20030;-54
2022/11/18 00:48:23;;;;;;;56.00;27.48;;;7.40;99.90;;;;;;7368764;19;20051;-55
2022/11/18 00:50:51;;;;;;;42.35;23.80;;;7.30;99.90;;;;;;7367236;19;20514;-52
2022/11/18 00:53:18;;;;;;;52.00;29.95;;;7.40;99.90;;;;;;7366375;19;20019;-54
2022/11/18 00:55:45;;;;;;;55.17;29.45;;;7.40;99.90;;;;;;7367389;19;20114;-49
2022/11/18 00:58:13;;;;;;;61.22;30.25;;;7.40;99.90;;;;;;7369332;19;20038;-56
2022/11/18 01:00:41;;;;;;;35.88;20.50;;;7.40;99.90;;;;;;7365552;19;20448;-55
2022/11/18 01:03:09;;;;;;;55.85;28.63;;;7.40;99.90;;;;;;7369552;19;20018;-55
2022/11/18 01:05:36;;;;;;;56.10;28.23;;;7.40;99.90;;;;;;7367443;19;20021;-55
2022/11/18 01:08:08;;;;;;;59.83;30.67;;;7.40;99.90;;;;;;7367322;19;20086;-55
2022/11/18 01:10:35;;;;;;;64.30;31.33;;;7.40;99.90;;;;;;7367871;19;20517;-55
2022/11/18 01:13:18;;;;;;;66.25;32.47;;;7.40;99.90;;;;;;7367733;19;20027;-55
2022/11/18 01:15:55;;;;;;;45.75;26.63;;;7.40;99.90;;;;;;7367460;19;20016;-51
2022/11/18 01:18:29;;;;;;;60.28;28.48;;;7.40;99.90;;;;;;7367740;19;20034;-52
2022/11/18 01:21:03;;;;;;;62.47;31.48;;;7.40;99.90;;;;;;7368819;19;20022;-52
2022/11/18 01:23:29;;;;;;;52.53;28.80;;;7.40;99.90;;;;;;7364646;19;20465;-52
2022/11/18 01:25:56;;;;;;;49.78;27.33;;;7.40;99.90;;;;;;7370429;19;20036;-51
2022/11/18 01:28:23;;;;;;;61.88;31.33;;;7.40;99.90;;;;;;7372436;19;20093;-53
2022/11/18 01:30:50;;;;;;;48.35;27.17;;;7.40;99.90;;;;;;7366249;19;20484;-54
2022/11/18 01:33:17;;;;;;;48.85;26.42;;;7.40;99.90;;;;;;7364650;19;20029;-48
2022/11/18 01:35:45;;;;;;;55.75;30.05;;;7.40;99.90;;;;;;7366815;19;20691;-50
2022/11/18 01:38:12;;;;;;;51.75;28.92;;;7.40;99.90;;;;;;7365041;19;20054;-55
2022/11/18 01:40:40;;;;;;;68.30;33.58;;;7.40;99.90;;;;;;7377235;19;20022;-55
2022/11/18 01:43:13;;;;;;;60.97;31.42;;;7.40;99.90;;;;;;7370238;19;20466;-55
2022/11/18 01:45:44;;;;;;;66.57;32.55;;;7.40;99.90;;;;;;7375453;19;20018;-54
2022/11/18 01:48:15;;;;;;;59.55;27.88;;;7.30;99.90;;;;;;7372409;19;20019;-55
2022/11/18 01:50:48;;;;;;;61.30;29.27;;;7.40;99.90;;;;;;7369492;19;20530;-53
2022/11/18 01:53:26;;;;;;;61.83;29.65;;;7.40;99.90;;;;;;7374608;19;20025;-55
2022/11/18 01:55:59;;;;;;;56.30;30.73;;;7.40;99.90;;;;;;7372967;19;20018;-51
2022/11/18 01:58:39;;;;;;;51.85;28.63;;;7.40;99.90;;;;;;7373853;19;20593;-52
2022/11/18 02:01:07;;;;;;;56.17;26.98;;;7.40;99.90;;;;;;7371442;19;20022;-56
2022/11/18 02:03:35;;;;;;;58.83;30.17;;;7.40;99.90;;;;;;7370757;19;20044;-54
2022/11/18 02:06:03;;;;;;;48.17;27.92;;;7.40;99.90;;;;;;7373969;19;20694;-52
2022/11/18 02:08:32;;;;;;;60.60;30.70;;;7.40;99.90;;;;;;7372300;19;20022;-54
2022/11/18 02:11:00;;;;;;;47.47;28.48;;;7.40;99.90;;;;;;7369203;19;20033;-55
2022/11/18 02:13:26;;;;;;;51.95;27.83;;;7.40;99.90;;;;;;7375270;19;20014;-54
2022/11/18 02:16:00;;;;;;;57.30;28.77;;;7.40;99.90;;;;;;7371839;19;20030;-55
2022/11/18 02:19:02;;;;;;;57.92;30.45;;;7.40;99.90;;;;;;7374273;19;20523;-55
2022/11/18 02:22:00;;;;;;;51.10;28.00;;;7.40;99.90;;;;;;7372613;19;20022;-55
2022/11/18 02:24:42;;;;;;;46.20;26.20;;;7.40;99.90;;;;;;7372018;19;20115;-56
2022/11/18 02:27:12;;;;;;;;;;;7.40;99.90;;;;;;7376239;19;20030;-56
2022/11/18 02:29:47;;;;;;;49.70;26.92;;;7.40;99.90;;;;;;7375319;19;19934;-52
2022/11/18 02:32:21;;;;;;;51.15;28.73;;;7.40;99.90;;;;;;7374091;19;20018;-54
2022/11/18 02:34:53;;;;;;;55.88;30.52;;;7.40;99.90;;;;;;7374881;19;20042;-55
2022/11/18 02:37:38;;;;;;;;;;;7.30;99.90;;;;;;7377231;19;20044;-55
2022/11/18 02:40:39;;;;;;;56.78;30.02;;;7.40;99.90;;;;;;7374272;19;19923;-55
2022/11/18 02:43:08;;;;;;;52.28;28.17;;;7.40;99.90;;;;;;7364759;19;20018;-56
2022/11/18 02:45:38;;;;;;;61.40;31.17;;;7.40;99.90;;;;;;7371993;19;20445;-53
2022/11/18 02:48:09;;;;;;;50.50;28.42;;;7.30;99.90;;;;;;7368263;19;20048;-52
2022/11/18 02:50:38;;;;;;;58.97;32.20;;;7.30;99.90;;;;;;7371844;19;20022;-52
2022/11/18 02:53:06;;;;;;;55.33;30.52;;;7.30;99.90;;;;;;7366279;19;21674;-56
2022/11/18 02:55:36;;;;;;;53.85;28.48;;;7.40;99.90;;;;;;7371112;19;20405;-53
2022/11/18 02:58:04;;;;;;;49.42;30.02;;;7.40;99.90;;;;;;7373175;19;20444;-51
2022/11/18 03:00:32;;;;;;;44.88;27.58;;;7.30;99.90;;;;;;7371934;19;20029;-50
2022/11/18 03:02:59;;;;;;;52.72;28.95;;;7.30;99.90;;;;;;7366062;19;20435;-51
2022/11/18 03:05:35;;;;;;;49.33;28.95;;;7.30;99.90;;;;;;7370898;19;20022;-55
2022/11/18 03:08:10;;;;;;;37.95;23.67;;;7.30;99.90;;;;;;7372444;19;20022;-54
2022/11/18 03:10:43;;;;;;;53.85;29.73;;;7.30;99.90;;;;;;7369045;19;20052;-54
2022/11/18 03:13:36;;;;;;;60.90;30.40;;;7.30;99.90;;;;;;7371010;19;20474;-52
2022/11/18 03:16:09;;;;;;;51.05;28.20;;;7.30;99.90;;;;;;7370806;19;21205;-55
2022/11/18 03:19:13;;;;;;;54.13;29.52;;;7.30;99.90;;;;;;7370735;19;20019;-52
2022/11/18 03:21:51;;;;;;;52.53;29.42;;;7.30;99.90;;;;;;7368803;19;20034;-50
2022/11/18 03:24:29;;;;;;;53.20;29.77;;;7.30;99.90;;;;;;7374553;19;20410;-51
2022/11/18 03:27:25;;;;;;;45.28;29.60;;;7.30;99.90;;;;;;7369063;19;20073;-52
2022/11/18 03:29:58;;;;;;;50.22;27.00;;;7.30;99.90;;;;;;7368542;19;20019;-51
2022/11/18 03:32:28;;;;;;;54.60;29.98;;;7.30;99.90;;;;;;7367148;19;20018;-52
2022/11/18 03:35:00;;;;;;;54.67;29.17;;;7.30;99.90;;;;;;7370239;19;20015;-52
2022/11/18 03:37:29;;;;;;;49.33;29.55;;;7.30;99.90;;;;;;7370881;19;20015;-54
2022/11/18 03:40:01;;;;;;;49.58;28.02;;;7.30;99.90;;;;;;7370235;19;20541;-54
2022/11/18 03:42:34;;;;;;;44.92;26.10;;;7.30;99.90;;;;;;7370049;19;20042;-51
2022/11/18 03:45:17;;;;;;;45.03;27.05;;;7.30;99.90;;;;;;7372416;19;20029;-54
2022/11/18 03:47:51;;;;;;;45.88;29.45;;;7.40;99.90;;;;;;7368945;19;20018;-54
2022/11/18 03:50:41;;;;;;;47.92;29.02;;;7.30;99.90;;;;;;7368574;19;20025;-54
2022/11/18 03:53:10;;;;;;;52.47;28.35;;;7.30;99.90;;;;;;7368323;19;20485;-55
2022/11/18 03:55:40;;;;;;;47.47;29.40;;;7.30;99.90;;;;;;7367100;19;20613;-51
2022/11/18 03:58:25;;;;;;;47.30;29.05;;;7.30;99.90;;;;;;7369936;19;20018;-55
2022/11/18 04:01:03;;;;;;;45.05;26.40;;;7.30;99.90;;;;;;7363379;19;20025;-54
2022/11/18 04:03:30;;;;;;;38.95;25.40;;;7.30;99.90;;;;;;7369665;19;20094;-55
2022/11/18 04:06:05;;;;;;;44.05;26.60;;;7.40;99.90;;;;;;7369507;19;20026;-55
2022/11/18 04:08:37;;;;;;;35.47;21.75;;;7.40;99.90;;;;;;7368960;19;20368;-53
2022/11/18 04:14:06;;;;;;;44.72;27.92;;;7.30;99.90;;;;;;7368030;19;20446;-54
2022/11/18 04:16:43;;;;;;;44.88;27.15;;;7.30;99.90;;;;;;7365864;19;20497;-51
2022/11/18 04:19:11;;;;;;;48.67;30.20;;;7.30;99.90;;;;;;7369647;19;20031;-51
2022/11/18 04:21:37;;;;;;;45.58;27.90;;;7.30;99.90;;;;;;7368580;19;20459;-51
2022/11/18 04:24:05;;;;;;;50.67;28.30;;;7.30;99.90;;;;;;7366652;19;20014;-54
2022/11/18 04:26:31;;;;;;;46.08;27.85;;;7.30;99.90;;;;;;7370271;19;20030;-54
2022/11/18 04:28:57;;;;;;;42.70;27.65;;;7.30;99.90;;;;;;7369146;19;20018;-54
2022/11/18 04:31:24;;;;;;;46.83;27.35;;;7.30;99.90;;;;;;7369550;19;20045;-56
2022/11/18 04:33:53;;;;;;;46.75;25.30;;;7.30;99.90;;;;;;7361715;19;20022;-54
2022/11/18 04:36:20;;;;;;;43.90;26.35;;;7.30;99.90;;;;;;7366868;19;20026;-54
2022/11/18 04:38:46;;;;;;;46.28;27.80;;;7.30;99.90;;;;;;7371561;19;20031;-55
2022/11/18 04:41:12;;;;;;;45.42;28.17;;;7.30;99.90;;;;;;7368684;19;20092;-54
2022/11/18 04:43:39;;;;;;;45.53;27.08;;;7.30;99.90;;;;;;7367066;19;20015;-54
2022/11/18 04:46:06;;;;;;;39.33;25.60;;;7.20;99.90;;;;;;7365691;19;20019;-53
2022/11/18 04:48:32;;;;;;;39.53;23.50;;;7.20;99.90;;;;;;7369493;19;20057;-55
2022/11/18 04:51:05;;;;;;;44.00;26.02;;;7.20;99.90;;;;;;7365719;19;20022;-57
2022/11/18 04:53:32;;;;;;;39.78;22.58;;;7.20;99.90;;;;;;7365700;19;20022;-55
2022/11/18 04:56:06;;;;;;;43.90;25.92;;;7.20;99.90;;;;;;7362040;19;20018;-54
2022/11/18 04:58:32;;;;;;;45.95;29.17;;;7.20;99.90;;;;;;7371765;19;20098;-55
2022/11/18 05:00:58;;;;;;;46.05;26.50;;;7.20;99.90;;;;;;7370532;19;20019;-54
2022/11/18 05:03:25;;;;;;;42.75;25.00;;;7.20;99.90;;;;;;7371227;19;20014;-54
2022/11/18 05:05:51;;;;;;;44.70;27.00;;;7.20;99.90;;;;;;7364929;19;20101;-55
2022/11/18 05:08:17;;;;;;;45.13;26.13;;;7.20;99.90;;;;;;7368980;19;20027;-57
2022/11/18 05:10:47;;;;;;;45.22;26.88;;;7.10;99.90;;;;;;7368930;19;20023;-55
2022/11/18 05:13:13;;;;;;;43.35;25.98;;;7.20;99.90;;;;;;7368000;19;20034;-53
2022/11/18 05:15:40;;;;;;;41.13;24.15;;;7.10;99.90;;;;;;7375964;19;20450;-55
2022/11/18 05:18:10;;;;;;;40.88;25.10;;;7.10;99.90;;;;;;7369624;19;20054;-54
2022/11/18 05:20:37;;;;;;;43.13;24.88;;;7.10;99.90;;;;;;7376747;19;20018;-54
2022/11/18 05:23:03;;;;;;;45.40;26.08;;;7.10;99.90;;;;;;7373882;19;20025;-54
2022/11/18 05:25:31;;;;;;;38.85;21.20;;;7.10;99.90;;;;;;7376145;19;20015;-55
2022/11/18 05:27:57;;;;;;;38.67;24.83;;;7.10;99.90;;;;;;7373752;19;20028;-54
2022/11/18 05:30:23;;;;;;;46.00;25.23;;;7.10;99.90;;;;;;7378439;19;20050;-54
2022/11/18 05:32:49;;;;;;;47.85;26.05;;;7.10;99.90;;;;;;7372191;19;20022;-54
2022/11/18 05:35:16;;;;;;;44.60;25.63;;;7.10;99.90;;;;;;7375505;19;20038;-53
2022/11/18 05:37:42;;;;;;;48.88;25.92;;;7.10;99.90;;;;;;7368471;19;20040;-55
2022/11/18 05:40:09;;;;;;;41.65;26.02;;;7.10;99.90;;;;;;7373332;19;20470;-55
2022/11/18 05:45:20;;;;;;;40.17;24.40;;;7.10;99.90;;;;;;7373226;19;20459;-55
2022/11/18 05:48:03;;;;;;;40.67;25.02;;;7.10;99.90;;;;;;7373599;19;20010;-55
2022/11/18 05:50:30;;;;;;;42.45;24.48;;;7.10;99.90;;;;;;7372779;19;20042;-54
2022/11/18 05:52:57;;;;;;;52.28;26.55;;;7.10;99.90;;;;;;7372432;19;20484;-55
2022/11/18 05:55:28;;;;;;;41.70;25.50;;;7.10;99.90;;;;;;7375762;19;20065;-54
2022/11/18 05:57:55;;;;;;;42.50;24.08;;;7.10;99.90;;;;;;7367341;19;20446;-54
2022/11/18 06:00:21;;;;;;;48.88;24.00;;;7.10;99.90;;;;;;7376027;19;20359;-54
2022/11/18 06:02:50;;;;;;;42.75;23.15;;;7.00;99.90;;;;;;7373424;19;20026;-54
2022/11/18 06:05:18;;;;;;;45.83;24.05;;;7.00;99.90;;;;;;7375660;19;20025;-54
2022/11/18 06:07:45;;;;;;;41.63;23.67;;;7.00;99.90;;;;;;7375636;19;20019;-51
2022/11/18 06:10:20;;;;;;;44.00;24.67;;;7.00;99.90;;;;;;7371889;19;20031;-49
2022/11/18 06:12:51;;;;;;;37.83;23.08;;;7.00;99.90;;;;;;7375918;19;20018;-51
2022/11/18 06:15:25;;;;;;;38.53;24.73;;;7.00;99.90;;;;;;7374170;19;20018;-50
2022/11/18 06:18:05;;;;;;;41.70;23.60;;;7.00;99.90;;;;;;7376638;19;20014;-51
2022/11/18 06:20:34;;;;;;;38.35;22.67;;;7.00;99.90;;;;;;7372696;19;20015;-51
2022/11/18 06:23:01;;;;;;;45.10;24.92;;;7.00;99.90;;;;;;7364445;19;20022;-48
2022/11/18 06:25:28;;;;;;;40.90;21.83;;;7.00;99.90;;;;;;7368393;19;20406;-48
2022/11/18 06:27:58;;;;;;;41.30;23.23;;;7.00;99.90;;;;;;7370809;19;20441;-51
2022/11/18 06:30:24;;;;;;;39.88;23.88;;;7.00;99.90;;;;;;7369454;19;20470;-52
2022/11/18 06:32:50;;;;;;;46.22;24.15;;;7.00;99.90;;;;;;7368274;19;20018;-52
2022/11/18 06:35:16;;;;;;;46.08;24.35;;;7.00;99.90;;;;;;7367487;19;20354;-50
2022/11/18 06:37:43;;;;;;;46.45;24.63;;;7.00;99.90;;;;;;7366792;19;20033;-52
2022/11/18 06:40:10;;;;;;;44.05;25.20;;;7.00;99.90;;;;;;7367686;19;20968;-49
2022/11/18 06:45:21;;;;;;;27.00;15.18;;;7.00;99.90;;;;;;7366378;19;20018;-52
2022/11/18 06:47:48;;;;;;;41.88;23.83;;;6.90;99.90;;;;;;7369455;19;21152;-51
2022/11/18 06:50:14;;;;;;;37.47;21.20;;;6.90;99.90;;;;;;7367338;19;20481;-51
2022/11/18 06:52:40;;;;;;;36.67;22.00;;;6.90;99.90;;;;;;7371637;19;20341;-52
2022/11/18 06:55:07;;;;;;;30.38;19.60;;;6.90;99.90;;;;;;7370545;19;20466;-51
2022/11/18 06:57:34;;;;;;;36.90;20.52;;;6.90;99.90;;;;;;7370325;19;20051;-51
2022/11/18 07:00:00;;;;;;;30.30;17.55;;;6.90;99.90;;;;;;7371260;19;20399;-49
2022/11/18 07:02:27;;;;;;;29.30;16.85;;;6.90;99.90;;;;;;7371964;19;20478;-50
2022/11/18 07:04:53;;;;;;;28.88;17.73;;;6.90;99.90;;;;;;7367513;19;20018;-51
2022/11/18 07:07:20;;;;;;;34.53;19.25;;;6.90;99.90;;;;;;7365482;19;20021;-53
2022/11/18 07:09:46;;;;;;;33.53;19.50;;;6.80;99.90;;;;;;7368601;19;20485;-52
2022/11/18 07:12:12;;;;;;;36.85;20.73;;;6.90;99.90;;;;;;7363373;19;20022;-52
2022/11/18 07:14:38;;;;;;;33.97;20.85;;;6.90;99.90;;;;;;7372179;19;20612;-52
2022/11/18 07:17:05;;;;;;;34.30;20.80;;;6.90;99.90;;;;;;7367814;19;20029;-53
2022/11/18 07:19:31;;;;;;;35.50;18.08;;;6.90;99.90;;;;;;7375929;19;20106;-55
2022/11/18 07:21:58;;;;;;;32.28;16.35;;;6.90;99.90;;;;;;7380387;19;20022;-56
2022/11/18 07:24:25;;;;;;;29.90;18.27;;;6.90;99.90;;;;;;7371495;19;20497;-53
2022/11/18 07:26:54;;;;;;;37.40;22.45;;;6.80;99.90;;;;;;7370613;19;20018;-53
2022/11/18 07:29:21;;;;;;;34.08;19.63;;;6.80;99.90;;;;;;7366183;19;20041;-51
2022/11/18 07:31:48;;;;;;;39.67;18.83;;;6.80;99.90;;;;;;7371486;19;20022;-55
2022/11/18 07:34:14;;;;;;;34.45;17.95;;;6.80;99.90;;;;;;7369009;19;20112;-53
2022/11/18 07:36:40;;;;;;;43.15;26.95;;;6.80;99.90;;;;;;7364438;19;20026;-52
2022/11/18 07:39:07;;;;;;;34.10;19.35;;;6.80;99.90;;;;;;7365053;19;20018;-50
2022/11/18 07:41:35;;;;;;;43.10;21.88;;;6.80;99.90;;;;;;7375380;19;20058;-48
2022/11/18 07:44:03;;;;;;;37.28;18.70;;;6.80;99.90;;;;;;7371229;19;20019;-51
2022/11/18 07:46:34;;;;;;;35.55;18.33;;;6.80;99.90;;;;;;7368078;19;20082;-50
2022/11/18 07:49:04;;;;;;;26.45;15.13;;;6.80;99.90;;;;;;7370154;19;20358;-52
2022/11/18 07:51:34;;;;;;;24.45;14.82;;;6.80;99.90;;;;;;7366935;19;20033;-51
2022/11/18 07:54:04;;;;;;;34.75;17.20;;;6.80;99.90;;;;;;7365971;19;20403;-58
2022/11/18 07:56:30;;;;;;;29.75;16.40;;;6.80;99.90;;;;;;7367242;19;20611;-49
2022/11/18 07:59:07;;;;;;;33.97;15.93;;;6.80;99.90;;;;;;7395777;19;20388;-47
2022/11/18 08:01:34;;;;;;;34.42;19.40;;;6.80;99.90;;;;;;7402427;19;20022;-51
2022/11/18 08:04:06;;;;;;;32.90;16.65;;;6.80;99.90;;;;;;7399119;19;20014;-51
2022/11/18 08:06:34;;;;;;;32.60;18.33;;;6.80;99.90;;;;;;7401252;19;20022;-49
2022/11/18 08:09:01;;;;;;;29.65;16.13;;;6.80;99.90;;;;;;7399473;19;20106;-47
2022/11/18 08:11:27;;;;;;;30.33;16.77;;;6.80;99.90;;;;;;7400123;19;20029;-51
2022/11/18 08:13:53;;;;;;;31.15;18.13;;;6.80;99.90;;;;;;7397593;19;20595;-52
2022/11/18 08:16:22;;;;;;;32.22;16.55;;;6.80;99.90;;;;;;7397267;19;20025;-50
2022/11/18 08:18:49;;;;;;;29.58;17.73;;;6.80;99.90;;;;;;7393165;19;20018;-56
2022/11/18 08:21:17;;;;;;;31.02;16.63;;;6.80;99.90;;;;;;7398817;19;20032;-55
2022/11/18 08:23:52;;;;;;;33.15;18.30;;;6.70;99.90;;;;;;7398524;19;20019;-55
2022/11/18 08:26:19;;;;;;;35.63;18.65;;;6.80;99.90;;;;;;7391497;19;20018;-56
2022/11/18 08:28:46;;;;;;;30.80;15.65;;;6.80;99.90;;;;;;7396826;19;20430;-55
2022/11/18 08:31:24;;;;;;;28.25;15.95;;;6.80;99.90;;;;;;7396359;19;20019;-54
2022/11/18 08:33:57;;;;;;;35.58;17.98;;;6.90;99.90;;;;;;7399251;19;20074;-49
2022/11/18 08:36:29;;;;;;;32.08;15.77;;;6.80;99.90;;;;;;7402726;19;20022;-51
2022/11/18 08:38:58;;;;;;;29.40;15.00;;;6.80;99.90;;;;;;7398852;19;20029;-47
2022/11/18 08:41:28;;;;;;;26.08;14.32;;;6.80;99.90;;;;;;7400309;19;20033;-55
2022/11/18 08:43:54;;;;;;;22.10;13.75;;;6.80;99.90;;;;;;7400306;19;20629;-50
2022/11/18 08:46:21;;;;;;;25.63;15.23;;;6.80;99.90;;;;;;7401341;19;20038;-50
2022/11/18 08:48:48;;;;;;;29.27;15.40;;;6.70;99.90;;;;;;7400267;19;20026;-49
2022/11/18 08:51:14;;;;;;;26.23;15.52;;;6.80;99.90;;;;;;7402150;19;20018;-55
2022/11/18 08:53:41;;;;;;;28.02;15.90;;;6.80;99.90;;;;;;7397167;19;20111;-55
2022/11/18 08:56:14;;;;;;;31.23;17.52;;;6.80;99.90;;;;;;7400596;19;20029;-54
2022/11/18 08:58:41;;;;;;;30.83;16.65;;;6.80;99.90;;;;;;7399138;19;20014;-54
2022/11/18 09:01:08;;;;;;;30.42;17.55;;;6.80;99.90;;;;;;7401776;19;20026;-57
2022/11/18 09:03:35;;;;;;;29.55;17.92;;;6.80;99.90;;;;;;7397920;19;20442;-54
2022/11/18 09:06:23;;;;;;;30.15;15.85;;;6.80;99.90;;;;;;7402474;19;20022;-55
2022/11/18 09:08:49;;;;;;;24.10;13.82;;;6.80;99.90;;;;;;7392162;19;20018;-55
2022/11/18 09:11:18;;;;;;;26.33;16.20;;;6.70;99.90;;;;;;7372052;19;20032;-50
2022/11/18 09:13:45;;;;;;;22.20;13.82;;;6.70;99.90;;;;;;7370171;19;20040;-51
2022/11/18 09:16:12;;;;;;;26.65;14.88;;;6.70;99.90;;;;;;7371557;19;20029;-50
2022/11/18 09:18:38;;;;;;;20.50;13.18;;;6.70;99.90;;;;;;7364956;19;20033;-51
2022/11/18 09:21:07;;;;;;;24.52;15.70;;;6.70;99.90;;;;;;7372296;19;20014;-50
2022/11/18 09:23:35;;;;;;;25.73;15.23;;;6.60;99.90;;;;;;7370663;19;20018;-49
2022/11/18 09:26:07;;;;;;;25.70;16.83;;;6.70;99.90;;;;;;7370788;19;20043;-50
2022/11/18 09:28:34;;;;;;;24.60;14.95;;;6.70;99.90;;;;;;7371474;19;20018;-51
2022/11/18 09:31:05;;;;;;;25.35;16.55;;;6.70;99.90;;;;;;7373623;19;20374;-46
2022/11/18 09:33:31;;;;;;;26.45;16.17;;;6.70;99.90;;;;;;7369220;19;20513;-57
2022/11/18 09:35:58;;;;;;;22.80;14.95;;;6.80;99.90;;;;;;7369649;19;20035;-48
2022/11/18 09:38:24;;;;;;;25.95;15.00;;;6.70;99.90;;;;;;7365482;19;20366;-49
2022/11/18 09:41:05;;;;;;;24.00;13.02;;;6.70;99.90;;;;;;7373750;19;20039;-54
2022/11/18 09:43:54;;;;;;;27.58;16.20;;;6.70;99.90;;;;;;7368361;19;20018;-56
2022/11/18 09:46:32;;;;;;;28.23;16.35;;;6.70;99.90;;;;;;7365750;19;20022;-50
2022/11/18 09:49:13;;;;;;;24.58;16.83;;;6.70;99.90;;;;;;7370074;19;20029;-57
2022/11/18 09:51:46;;;;;;;28.48;17.50;;;6.70;99.90;;;;;;7370182;19;20397;-56
2022/11/18 09:54:34;;;;;;;27.27;15.07;;;6.70;99.90;;;;;;7365939;19;20143;-50
2022/11/18 09:57:01;;;;;;;26.92;14.95;;;6.70;99.90;;;;;;7371019;19;20018;-49
2022/11/18 09:59:31;;;;;;;24.52;15.23;;;6.70;99.90;;;;;;7366923;19;20490;-57
2022/11/18 10:02:53;;;;;;;30.42;17.10;;;6.70;99.90;;;;;;7368496;19;20093;-57
2022/11/18 10:05:27;;;;;;;25.85;15.77;;;6.70;99.90;;;;;;7363452;19;20479;-56
2022/11/18 10:08:18;;;;;;;29.80;17.55;;;6.70;99.90;;;;;;7365470;19;20018;-56
2022/11/18 10:11:09;;;;;;;27.90;17.17;;;6.60;99.90;;;;;;7367868;19;20019;-56
2022/11/18 10:14:04;;;;;;;29.35;17.08;;;6.60;99.90;;;;;;7368683;19;20667;-55
2022/11/18 10:16:42;;;;;;;27.92;17.23;;;6.50;99.90;;;;;;7367024;19;20419;-56
2022/11/18 10:19:31;;;;;;;25.38;15.07;;;6.60;99.90;;;;;;7367779;19;20022;-54
2022/11/18 10:22:07;;;;;;;25.25;16.08;;;6.50;99.90;;;;;;7368811;19;20086;-53
2022/11/18 10:24:42;;;;;;;27.05;15.07;;;6.50;99.90;;;;;;7369519;19;20045;-46
2022/11/18 10:27:14;;;;;;;27.95;15.15;;;6.50;99.90;;;;;;7369816;19;20147;-50
2022/11/18 10:29:42;;;;;;;13.63;9.07;;;6.50;99.90;;;;;;7360349;19;20015;-54
2022/11/18 10:32:17;;;;;;;20.50;12.15;;;6.50;99.90;;;;;;7363798;19;20018;-50
2022/11/18 10:34:55;;;;;;;27.45;15.10;;;6.50;99.90;;;;;;7359411;19;20520;-48
2022/11/18 10:37:31;;;;;;;26.67;14.95;;;6.50;99.90;;;;;;7365455;19;20752;-49
2022/11/18 10:39:59;;;;;;;27.17;16.17;;;6.50;99.90;;;;;;7368524;19;20018;-47
2022/11/18 10:42:44;;;;;;;27.33;15.82;;;6.50;99.90;;;;;;7366488;19;20018;-55
2022/11/18 10:45:24;;;;;;;25.83;16.05;;;6.50;99.90;;;;;;7368058;19;20018;-46
2022/11/18 10:47:56;;;;;;;25.30;14.50;;;6.60;99.90;;;;;;7366582;19;20019;-49
2022/11/18 10:50:32;;;;;;;22.75;14.68;;;6.50;99.90;;;;;;7365777;19;20014;-54
2022/11/18 10:52:59;;;;;;;27.45;14.57;;;6.50;99.90;;;;;;7364799;19;20117;-54
2022/11/18 10:55:27;;;;;;;27.88;15.57;;;6.60;99.90;;;;;;7368120;19;20022;-54
2022/11/18 10:58:15;;;;;;;24.15;14.32;;;6.60;99.90;;;;;;7367379;19;20734;-53
2022/11/18 11:00:48;;;;;;;24.17;13.07;;;6.60;99.90;;;;;;7367958;19;20837;-53
2022/11/18 11:03:27;;;;;;;23.52;13.23;;;6.60;99.90;;;;;;7363494;19;20014;-48
2022/11/18 11:06:14;;;;;;;23.33;13.77;;;6.60;99.90;;;;;;7368304;19;20449;-48
2022/11/18 11:08:50;;;;;;;24.25;13.35;;;6.60;99.90;;;;;;7366900;19;20015;-49
2022/11/18 11:11:25;;;;;;;22.63;13.00;;;6.60;99.90;;;;;;7366322;19;20025;-54
2022/11/18 11:13:56;;;;;;;23.67;13.88;;;6.60;99.90;;;;;;7366825;19;20022;-53
2022/11/18 11:16:24;;;;;;;20.08;12.32;;;6.60;99.90;;;;;;7367358;19;20640;-54
2022/11/18 11:18:58;;;;;;;21.05;11.82;;;6.60;99.90;;;;;;7362074;19;20031;-54
2022/11/18 11:21:26;;;;;;;18.52;11.50;;;6.60;99.90;;;;;;7366440;19;20030;-54
2022/11/18 11:23:53;;;;;;;16.52;11.00;;;6.70;99.90;;;;;;7367462;19;20039;-54
2022/11/18 11:26:25;;;;;;;22.13;13.52;;;6.60;99.90;;;;;;7364877;19;20042;-53
2022/11/18 11:29:35;;;;;;;22.08;12.93;;;6.50;99.90;;;;;;7365099;19;20029;-54
2022/11/18 11:32:26;;;;;;;21.42;13.40;;;6.50;99.90;;;;;;7359315;19;20015;-54
2022/11/18 11:35:08;;;;;;;24.48;15.52;;;6.40;99.90;;;;;;7364409;19;20086;-54
2022/11/18 11:38:03;;;;;;;20.98;13.10;;;6.40;99.90;;;;;;7363623;19;20033;-49
2022/11/18 11:41:14;;;;;;;20.98;13.55;;;6.40;99.90;;;;;;7364164;19;20517;-47
2022/11/18 11:44:04;;;;;;;24.40;15.80;;;6.30;99.90;;;;;;7361460;19;20090;-49
2022/11/18 11:50:02;;;;;;;21.08;11.88;;;6.30;99.90;;;;;;7362045;19;20022;-54
2022/11/18 11:52:50;;;;;;;16.42;10.50;;;6.30;99.90;;;;;;7363124;19;20037;-54
2022/11/18 11:55:30;;;;;;;18.25;12.30;;;6.20;99.90;;;;;;7365540;19;20495;-53
2022/11/18 11:58:18;;;;;;;17.60;12.30;;;6.10;99.90;;;;;;7364583;19;20018;-54
2022/11/18 12:00:56;;;;;;;15.73;9.40;;;6.10;99.90;;;;;;7361869;19;20025;-54
2022/11/18 12:04:04;;;;;;;15.13;10.65;;;6.10;99.90;;;;;;7364498;19;20351;-54
2022/11/18 12:06:48;;;;;;;18.25;11.27;;;6.10;99.90;;;;;;7363539;19;20098;-54
2022/11/18 12:09:18;;;;;;;18.35;12.05;;;6.00;99.90;;;;;;7363219;19;20751;-54
2022/11/18 12:11:50;;;;;;;17.92;11.20;;;6.10;99.90;;;;;;7355579;19;20018;-54
2022/11/18 12:14:39;;;;;;;17.60;10.52;;;6.00;99.90;;;;;;7364940;19;20015;-55
2022/11/18 12:17:24;;;;;;;20.35;12.98;;;6.10;99.90;;;;;;7365172;19;20018;-53
2022/11/18 12:19:51;;;;;;;21.00;12.20;;;6.20;99.90;;;;;;7366864;19;20018;-45
2022/11/18 12:22:17;;;;;;;19.73;12.55;;;6.20;99.90;;;;;;7367917;19;20026;-50
2022/11/18 12:24:44;;;;;;;19.67;11.55;;;6.30;99.90;;;;;;7367476;19;20396;-48
2022/11/18 12:27:38;;;;;;;18.33;11.50;;;6.20;99.90;;;;;;7365416;19;20402;-49
2022/11/18 12:30:16;;;;;;;15.13;9.32;;;6.10;99.90;;;;;;7363738;19;20018;-53
2022/11/18 12:32:45;;;;;;;18.92;11.40;;;6.10;99.90;;;;;;7366395;19;20015;-53
2022/11/18 12:35:11;;;;;;;13.02;7.10;;;6.00;99.90;;;;;;7363899;19;20650;-53
2022/11/18 12:37:50;;;;;;;16.45;10.93;;;6.00;99.90;;;;;;7368498;19;20019;-54
2022/11/18 12:40:40;;;;;;;15.25;10.43;;;6.00;99.90;;;;;;7361318;19;20514;-53
2022/11/18 12:46:25;;;;;;;21.15;12.10;;;6.00;99.90;;;;;;7369115;19;20565;-54
2022/11/18 12:48:52;;;;;;;20.73;12.05;;;6.00;99.90;;;;;;7371871;19;20015;-54
2022/11/18 12:51:23;;;;;;;23.40;12.20;;;6.00;99.90;;;;;;7367494;19;20014;-53
2022/11/18 12:53:53;;;;;;;22.98;13.57;;;6.00;99.90;;;;;;7369375;19;20524;-54
2022/11/18 12:56:29;;;;;;;20.33;11.90;;;6.00;99.90;;;;;;7368531;19;20042;-54
2022/11/18 12:58:58;;;;;;;21.13;13.02;;;6.10;99.90;;;;;;7365708;19;20039;-49
2022/11/18 13:01:30;;;;;;;19.77;11.82;;;6.00;99.90;;;;;;7368580;19;20028;-49
2022/11/18 13:04:18;;;;;;;;;;;6.00;99.90;;;;;;7371710;19;20019;-45
2022/11/18 13:06:46;;;;;;;17.35;10.23;;;6.00;99.90;;;;;;7370107;19;19925;-46
2022/11/18 13:09:28;;;;;;;18.08;11.27;;;6.00;99.90;;;;;;7368106;19;20118;-54
2022/11/18 13:12:13;;;;;;;21.95;13.50;;;5.90;99.90;;;;;;7369600;19;20045;-56
2022/11/18 13:17:57;;;;;;;21.27;13.63;;;5.80;99.90;;;;;;7371836;19;20049;-55
2022/11/18 13:20:38;;;;;;;17.85;11.48;;;5.80;99.90;;;;;;7369980;19;20014;-47
2022/11/18 13:26:16;;;;;;;21.20;13.57;;;5.60;99.90;;;;;;7371086;19;20430;-55
2022/11/18 13:29:14;;;;;;;23.27;13.40;;;5.60;99.90;;;;;;7374232;19;20015;-54